sensor_id;sensor_type;location;lat;lon;timestamp;P1;durP1;ratioP1;P2;durP2;ratioP2
71236;SDS011;58984;51.960;5.582;2023-06-04T00:02:13;7.00;;;2.13;;
71236;SDS011;58984;51.960;5.582;2023-06-04T00:04:38;5.22;;;2.45;;
71236;SDS011;58984;51.960;5.582;2023-06-04T00:07:04;3.63;;;2.08;;
71236;SDS011;58984;51.960;5.582;2023-06-04T00:09:30;4.45;;;2.17;;
71236;SDS011;58984;51.960;5.582;2023-06-04T00:11:56;4.57;;;1.67;;
71236;SDS011;58984;51.960;5.582;2023-06-04T00:14:21;3.70;;;1.85;;
71236;SDS011;58984;51.960;5.582;2023-06-04T00:16:47;4.47;;;1.77;;
71236;SDS011;58984;51.960;5.582;2023-06-04T00:19:13;4.07;;;1.90;;
71236;SDS011;58984;51.960;5.582;2023-06-04T00:21:39;3.75;;;1.80;;
71236;SDS011;58984;51.960;5.582;2023-06-04T00:24:04;7.13;;;2.20;;
71236;SDS011;58984;51.960;5.582;2023-06-04T00:26:30;5.50;;;2.22;;
71236;SDS011;58984;51.960;5.582;2023-06-04T00:28:56;3.00;;;1.73;;
71236;SDS011;58984;51.960;5.582;2023-06-04T00:31:22;3.15;;;1.90;;
71236;SDS011;58984;51.960;5.582;2023-06-04T00:33:48;2.08;;;1.73;;
71236;SDS011;58984;51.960;5.582;2023-06-04T00:36:13;2.45;;;1.70;;
71236;SDS011;58984;51.960;5.582;2023-06-04T00:38:39;3.38;;;2.00;;
71236;SDS011;58984;51.960;5.582;2023-06-04T00:41:04;2.92;;;1.63;;
71236;SDS011;58984;51.960;5.582;2023-06-04T00:43:30;2.55;;;1.85;;
71236;SDS011;58984;51.960;5.582;2023-06-04T00:45:57;5.15;;;2.00;;
71236;SDS011;58984;51.960;5.582;2023-06-04T00:48:23;2.42;;;1.70;;
71236;SDS011;58984;51.960;5.582;2023-06-04T00:50:50;4.03;;;1.92;;
71236;SDS011;58984;51.960;5.582;2023-06-04T00:53:16;4.03;;;1.70;;
71236;SDS011;58984;51.960;5.582;2023-06-04T00:55:41;3.60;;;1.92;;
71236;SDS011;58984;51.960;5.582;2023-06-04T00:58:08;4.15;;;1.85;;
71236;SDS011;58984;51.960;5.582;2023-06-04T01:00:34;2.28;;;1.65;;
71236;SDS011;58984;51.960;5.582;2023-06-04T01:03:01;3.70;;;2.08;;
71236;SDS011;58984;51.960;5.582;2023-06-04T01:08:13;3.35;;;1.52;;
71236;SDS011;58984;51.960;5.582;2023-06-04T01:10:50;4.75;;;1.73;;
71236;SDS011;58984;51.960;5.582;2023-06-04T01:13:16;5.25;;;1.80;;
71236;SDS011;58984;51.960;5.582;2023-06-04T01:15:41;2.45;;;1.80;;
71236;SDS011;58984;51.960;5.582;2023-06-04T01:18:07;4.13;;;1.85;;
71236;SDS011;58984;51.960;5.582;2023-06-04T01:20:38;3.60;;;1.95;;
71236;SDS011;58984;51.960;5.582;2023-06-04T01:23:24;2.22;;;1.77;;
71236;SDS011;58984;51.960;5.582;2023-06-04T01:25:58;2.60;;;1.80;;
71236;SDS011;58984;51.960;5.582;2023-06-04T01:28:27;2.33;;;1.80;;
71236;SDS011;58984;51.960;5.582;2023-06-04T01:30:55;2.58;;;1.88;;
71236;SDS011;58984;51.960;5.582;2023-06-04T01:33:21;1.85;;;1.50;;
71236;SDS011;58984;51.960;5.582;2023-06-04T01:35:47;4.10;;;2.13;;
71236;SDS011;58984;51.960;5.582;2023-06-04T01:38:14;2.60;;;1.55;;
71236;SDS011;58984;51.960;5.582;2023-06-04T01:40:40;5.32;;;2.20;;
71236;SDS011;58984;51.960;5.582;2023-06-04T01:43:06;2.65;;;1.73;;
71236;SDS011;58984;51.960;5.582;2023-06-04T01:45:31;2.45;;;1.73;;
71236;SDS011;58984;51.960;5.582;2023-06-04T01:47:57;2.67;;;1.70;;
71236;SDS011;58984;51.960;5.582;2023-06-04T01:50:25;4.03;;;1.70;;
71236;SDS011;58984;51.960;5.582;2023-06-04T01:52:51;2.67;;;1.80;;
71236;SDS011;58984;51.960;5.582;2023-06-04T01:55:17;3.58;;;2.15;;
71236;SDS011;58984;51.960;5.582;2023-06-04T01:57:44;2.95;;;1.42;;
71236;SDS011;58984;51.960;5.582;2023-06-04T02:00:11;2.05;;;1.40;;
71236;SDS011;58984;51.960;5.582;2023-06-04T02:02:37;2.65;;;1.70;;
71236;SDS011;58984;51.960;5.582;2023-06-04T02:05:04;2.38;;;1.58;;
71236;SDS011;58984;51.960;5.582;2023-06-04T02:07:39;2.92;;;1.63;;
71236;SDS011;58984;51.960;5.582;2023-06-04T02:10:17;2.65;;;1.80;;
71236;SDS011;58984;51.960;5.582;2023-06-04T02:12:57;2.72;;;1.58;;
71236;SDS011;58984;51.960;5.582;2023-06-04T02:15:26;1.88;;;1.40;;
71236;SDS011;58984;51.960;5.582;2023-06-04T02:17:53;2.70;;;2.00;;
71236;SDS011;58984;51.960;5.582;2023-06-04T02:20:24;2.97;;;1.60;;
71236;SDS011;58984;51.960;5.582;2023-06-04T02:22:50;2.80;;;2.00;;
71236;SDS011;58984;51.960;5.582;2023-06-04T02:25:16;2.10;;;1.88;;
71236;SDS011;58984;51.960;5.582;2023-06-04T02:27:42;2.00;;;1.73;;
71236;SDS011;58984;51.960;5.582;2023-06-04T02:30:08;2.75;;;1.90;;
71236;SDS011;58984;51.960;5.582;2023-06-04T02:32:34;2.92;;;1.80;;
71236;SDS011;58984;51.960;5.582;2023-06-04T02:35:01;3.88;;;1.92;;
71236;SDS011;58984;51.960;5.582;2023-06-04T02:37:28;2.83;;;1.88;;
71236;SDS011;58984;51.960;5.582;2023-06-04T02:39:53;3.88;;;1.80;;
71236;SDS011;58984;51.960;5.582;2023-06-04T02:42:19;3.42;;;2.28;;
71236;SDS011;58984;51.960;5.582;2023-06-04T02:44:45;3.25;;;2.08;;
71236;SDS011;58984;51.960;5.582;2023-06-04T02:47:10;4.30;;;1.80;;
71236;SDS011;58984;51.960;5.582;2023-06-04T02:49:36;3.17;;;2.05;;
71236;SDS011;58984;51.960;5.582;2023-06-04T02:52:01;1.92;;;1.65;;
71236;SDS011;58984;51.960;5.582;2023-06-04T02:54:27;2.92;;;1.75;;
71236;SDS011;58984;51.960;5.582;2023-06-04T02:56:52;3.00;;;1.80;;
71236;SDS011;58984;51.960;5.582;2023-06-04T02:59:18;3.75;;;2.17;;
71236;SDS011;58984;51.960;5.582;2023-06-04T03:01:44;2.33;;;1.98;;
71236;SDS011;58984;51.960;5.582;2023-06-04T03:04:09;3.25;;;1.63;;
71236;SDS011;58984;51.960;5.582;2023-06-04T03:06:40;2.92;;;2.00;;
71236;SDS011;58984;51.960;5.582;2023-06-04T03:09:09;3.55;;;2.15;;
71236;SDS011;58984;51.960;5.582;2023-06-04T03:11:36;2.65;;;1.65;;
71236;SDS011;58984;51.960;5.582;2023-06-04T03:14:01;3.55;;;2.00;;
71236;SDS011;58984;51.960;5.582;2023-06-04T03:16:27;4.90;;;2.15;;
71236;SDS011;58984;51.960;5.582;2023-06-04T03:18:53;2.63;;;1.98;;
71236;SDS011;58984;51.960;5.582;2023-06-04T03:21:18;2.45;;;2.05;;
71236;SDS011;58984;51.960;5.582;2023-06-04T03:23:44;5.80;;;2.10;;
71236;SDS011;58984;51.960;5.582;2023-06-04T03:26:09;3.85;;;1.90;;
71236;SDS011;58984;51.960;5.582;2023-06-04T03:28:37;2.70;;;1.92;;
71236;SDS011;58984;51.960;5.582;2023-06-04T03:31:03;4.90;;;1.95;;
71236;SDS011;58984;51.960;5.582;2023-06-04T03:33:29;3.90;;;2.05;;
71236;SDS011;58984;51.960;5.582;2023-06-04T03:35:55;4.28;;;2.08;;
71236;SDS011;58984;51.960;5.582;2023-06-04T03:38:24;3.78;;;2.15;;
71236;SDS011;58984;51.960;5.582;2023-06-04T03:40:50;2.83;;;1.75;;
71236;SDS011;58984;51.960;5.582;2023-06-04T03:43:17;3.05;;;2.05;;
71236;SDS011;58984;51.960;5.582;2023-06-04T03:45:43;2.97;;;1.90;;
71236;SDS011;58984;51.960;5.582;2023-06-04T03:48:09;4.07;;;2.10;;
71236;SDS011;58984;51.960;5.582;2023-06-04T03:50:36;3.55;;;1.80;;
71236;SDS011;58984;51.960;5.582;2023-06-04T03:53:01;3.53;;;1.85;;
71236;SDS011;58984;51.960;5.582;2023-06-04T03:55:30;3.58;;;1.73;;
71236;SDS011;58984;51.960;5.582;2023-06-04T03:57:57;3.10;;;1.90;;
71236;SDS011;58984;51.960;5.582;2023-06-04T04:00:22;3.38;;;1.98;;
71236;SDS011;58984;51.960;5.582;2023-06-04T04:02:48;4.43;;;2.22;;
71236;SDS011;58984;51.960;5.582;2023-06-04T04:05:15;3.60;;;1.88;;
71236;SDS011;58984;51.960;5.582;2023-06-04T04:07:40;3.88;;;1.95;;
71236;SDS011;58984;51.960;5.582;2023-06-04T04:10:06;2.13;;;2.00;;
71236;SDS011;58984;51.960;5.582;2023-06-04T04:12:32;2.75;;;2.13;;
71236;SDS011;58984;51.960;5.582;2023-06-04T04:14:58;3.60;;;2.10;;
71236;SDS011;58984;51.960;5.582;2023-06-04T04:17:23;2.42;;;1.85;;
71236;SDS011;58984;51.960;5.582;2023-06-04T04:19:50;4.78;;;2.28;;
71236;SDS011;58984;51.960;5.582;2023-06-04T04:22:16;3.58;;;2.05;;
71236;SDS011;58984;51.960;5.582;2023-06-04T04:24:42;2.15;;;1.90;;
71236;SDS011;58984;51.960;5.582;2023-06-04T04:27:08;2.67;;;2.00;;
71236;SDS011;58984;51.960;5.582;2023-06-04T04:29:38;5.20;;;2.30;;
71236;SDS011;58984;51.960;5.582;2023-06-04T04:32:04;3.40;;;1.98;;
71236;SDS011;58984;51.960;5.582;2023-06-04T04:34:35;2.83;;;2.00;;
71236;SDS011;58984;51.960;5.582;2023-06-04T04:37:03;3.80;;;2.05;;
71236;SDS011;58984;51.960;5.582;2023-06-04T04:39:28;6.03;;;2.20;;
71236;SDS011;58984;51.960;5.582;2023-06-04T04:41:54;2.58;;;2.03;;
71236;SDS011;58984;51.960;5.582;2023-06-04T04:44:20;3.53;;;1.88;;
71236;SDS011;58984;51.960;5.582;2023-06-04T04:46:47;3.60;;;2.20;;
71236;SDS011;58984;51.960;5.582;2023-06-04T04:49:13;4.30;;;2.20;;
71236;SDS011;58984;51.960;5.582;2023-06-04T04:51:39;4.63;;;2.22;;
71236;SDS011;58984;51.960;5.582;2023-06-04T04:54:04;3.25;;;2.05;;
71236;SDS011;58984;51.960;5.582;2023-06-04T04:56:32;4.07;;;2.30;;
71236;SDS011;58984;51.960;5.582;2023-06-04T04:58:59;4.03;;;1.90;;
71236;SDS011;58984;51.960;5.582;2023-06-04T05:01:25;3.60;;;2.05;;
71236;SDS011;58984;51.960;5.582;2023-06-04T05:03:50;3.22;;;2.40;;
71236;SDS011;58984;51.960;5.582;2023-06-04T05:06:16;5.72;;;2.10;;
71236;SDS011;58984;51.960;5.582;2023-06-04T05:08:42;3.22;;;2.13;;
71236;SDS011;58984;51.960;5.582;2023-06-04T05:11:08;3.15;;;2.33;;
71236;SDS011;58984;51.960;5.582;2023-06-04T05:13:34;3.45;;;2.50;;
71236;SDS011;58984;51.960;5.582;2023-06-04T05:15:59;4.63;;;2.70;;
71236;SDS011;58984;51.960;5.582;2023-06-04T05:18:31;4.60;;;2.42;;
71236;SDS011;58984;51.960;5.582;2023-06-04T05:20:58;4.07;;;2.42;;
71236;SDS011;58984;51.960;5.582;2023-06-04T05:23:25;3.20;;;2.72;;
71236;SDS011;58984;51.960;5.582;2023-06-04T05:25:51;6.10;;;2.70;;
71236;SDS011;58984;51.960;5.582;2023-06-04T05:28:17;5.43;;;2.65;;
71236;SDS011;58984;51.960;5.582;2023-06-04T05:30:43;4.80;;;2.80;;
71236;SDS011;58984;51.960;5.582;2023-06-04T05:33:09;5.95;;;2.67;;
71236;SDS011;58984;51.960;5.582;2023-06-04T05:35:46;3.75;;;2.58;;
71236;SDS011;58984;51.960;5.582;2023-06-04T05:38:13;4.28;;;2.80;;
71236;SDS011;58984;51.960;5.582;2023-06-04T05:40:43;4.10;;;2.20;;
71236;SDS011;58984;51.960;5.582;2023-06-04T05:43:09;3.80;;;2.30;;
71236;SDS011;58984;51.960;5.582;2023-06-04T05:45:35;2.72;;;2.30;;
71236;SDS011;58984;51.960;5.582;2023-06-04T05:48:00;3.70;;;2.20;;
71236;SDS011;58984;51.960;5.582;2023-06-04T05:50:26;3.88;;;2.10;;
71236;SDS011;58984;51.960;5.582;2023-06-04T05:52:52;3.25;;;2.05;;
71236;SDS011;58984;51.960;5.582;2023-06-04T05:55:18;4.68;;;2.20;;
71236;SDS011;58984;51.960;5.582;2023-06-04T05:57:44;4.13;;;1.88;;
71236;SDS011;58984;51.960;5.582;2023-06-04T06:00:10;2.47;;;2.00;;
71236;SDS011;58984;51.960;5.582;2023-06-04T06:02:37;3.75;;;2.25;;
71236;SDS011;58984;51.960;5.582;2023-06-04T06:05:04;2.60;;;2.28;;
71236;SDS011;58984;51.960;5.582;2023-06-04T06:07:31;5.47;;;2.35;;
71236;SDS011;58984;51.960;5.582;2023-06-04T06:09:57;4.10;;;2.22;;
71236;SDS011;58984;51.960;5.582;2023-06-04T06:12:23;2.28;;;1.80;;
71236;SDS011;58984;51.960;5.582;2023-06-04T06:14:48;4.65;;;2.20;;
71236;SDS011;58984;51.960;5.582;2023-06-04T06:17:14;2.63;;;1.95;;
71236;SDS011;58984;51.960;5.582;2023-06-04T06:19:39;4.38;;;2.47;;
71236;SDS011;58984;51.960;5.582;2023-06-04T06:22:05;5.18;;;2.72;;
71236;SDS011;58984;51.960;5.582;2023-06-04T06:24:30;4.28;;;2.20;;
71236;SDS011;58984;51.960;5.582;2023-06-04T06:26:56;3.60;;;2.40;;
71236;SDS011;58984;51.960;5.582;2023-06-04T06:29:22;3.72;;;2.20;;
71236;SDS011;58984;51.960;5.582;2023-06-04T06:31:47;3.35;;;2.28;;
71236;SDS011;58984;51.960;5.582;2023-06-04T06:34:13;3.55;;;2.25;;
71236;SDS011;58984;51.960;5.582;2023-06-04T06:36:38;3.70;;;2.00;;
71236;SDS011;58984;51.960;5.582;2023-06-04T06:39:04;3.22;;;2.47;;
71236;SDS011;58984;51.960;5.582;2023-06-04T06:41:29;3.50;;;2.45;;
71236;SDS011;58984;51.960;5.582;2023-06-04T06:43:58;3.30;;;2.28;;
71236;SDS011;58984;51.960;5.582;2023-06-04T06:46:24;2.65;;;2.03;;
71236;SDS011;58984;51.960;5.582;2023-06-04T06:48:50;4.95;;;2.17;;
71236;SDS011;58984;51.960;5.582;2023-06-04T06:51:15;2.80;;;2.05;;
71236;SDS011;58984;51.960;5.582;2023-06-04T06:53:41;2.58;;;1.77;;
71236;SDS011;58984;51.960;5.582;2023-06-04T06:56:07;3.67;;;1.98;;
71236;SDS011;58984;51.960;5.582;2023-06-04T06:58:33;3.05;;;1.83;;
71236;SDS011;58984;51.960;5.582;2023-06-04T07:00:59;2.70;;;1.85;;
71236;SDS011;58984;51.960;5.582;2023-06-04T07:03:24;3.83;;;2.00;;
71236;SDS011;58984;51.960;5.582;2023-06-04T07:05:50;2.10;;;1.80;;
71236;SDS011;58984;51.960;5.582;2023-06-04T07:08:15;2.90;;;2.00;;
71236;SDS011;58984;51.960;5.582;2023-06-04T07:10:41;3.65;;;1.77;;
71236;SDS011;58984;51.960;5.582;2023-06-04T07:13:07;4.70;;;2.28;;
71236;SDS011;58984;51.960;5.582;2023-06-04T07:15:32;4.55;;;1.80;;
71236;SDS011;58984;51.960;5.582;2023-06-04T07:17:58;1.65;;;1.40;;
71236;SDS011;58984;51.960;5.582;2023-06-04T07:20:23;1.55;;;1.45;;
71236;SDS011;58984;51.960;5.582;2023-06-04T07:22:49;2.10;;;1.70;;
71236;SDS011;58984;51.960;5.582;2023-06-04T07:25:15;1.77;;;1.60;;
71236;SDS011;58984;51.960;5.582;2023-06-04T07:27:40;2.50;;;1.42;;
71236;SDS011;58984;51.960;5.582;2023-06-04T07:30:08;5.00;;;1.90;;
71236;SDS011;58984;51.960;5.582;2023-06-04T07:32:34;2.15;;;1.52;;
71236;SDS011;58984;51.960;5.582;2023-06-04T07:35:00;3.40;;;1.85;;
71236;SDS011;58984;51.960;5.582;2023-06-04T07:37:26;2.47;;;1.63;;
71236;SDS011;58984;51.960;5.582;2023-06-04T07:39:51;4.05;;;1.80;;
71236;SDS011;58984;51.960;5.582;2023-06-04T07:42:17;1.80;;;1.58;;
71236;SDS011;58984;51.960;5.582;2023-06-04T07:44:43;1.90;;;1.60;;
71236;SDS011;58984;51.960;5.582;2023-06-04T07:47:08;2.88;;;1.67;;
71236;SDS011;58984;51.960;5.582;2023-06-04T07:49:34;2.03;;;1.70;;
71236;SDS011;58984;51.960;5.582;2023-06-04T07:51:59;3.90;;;2.15;;
71236;SDS011;58984;51.960;5.582;2023-06-04T07:54:25;2.88;;;1.80;;
71236;SDS011;58984;51.960;5.582;2023-06-04T07:56:51;2.00;;;1.70;;
71236;SDS011;58984;51.960;5.582;2023-06-04T07:59:21;5.25;;;1.83;;
71236;SDS011;58984;51.960;5.582;2023-06-04T08:01:49;3.35;;;1.98;;
71236;SDS011;58984;51.960;5.582;2023-06-04T08:04:18;2.13;;;1.83;;
71236;SDS011;58984;51.960;5.582;2023-06-04T08:06:44;2.00;;;1.60;;
71236;SDS011;58984;51.960;5.582;2023-06-04T08:09:10;3.90;;;1.85;;
71236;SDS011;58984;51.960;5.582;2023-06-04T08:11:36;3.63;;;2.00;;
71236;SDS011;58984;51.960;5.582;2023-06-04T08:14:02;2.15;;;1.90;;
71236;SDS011;58984;51.960;5.582;2023-06-04T08:16:28;3.58;;;1.95;;
71236;SDS011;58984;51.960;5.582;2023-06-04T08:18:53;3.03;;;2.13;;
71236;SDS011;58984;51.960;5.582;2023-06-04T08:21:26;2.95;;;2.10;;
71236;SDS011;58984;51.960;5.582;2023-06-04T08:23:52;4.10;;;2.20;;
71236;SDS011;58984;51.960;5.582;2023-06-04T08:26:18;4.25;;;2.50;;
71236;SDS011;58984;51.960;5.582;2023-06-04T08:28:44;2.95;;;1.90;;
71236;SDS011;58984;51.960;5.582;2023-06-04T08:31:13;4.13;;;2.30;;
71236;SDS011;58984;51.960;5.582;2023-06-04T08:33:38;4.82;;;2.22;;
71236;SDS011;58984;51.960;5.582;2023-06-04T08:36:04;2.85;;;2.08;;
71236;SDS011;58984;51.960;5.582;2023-06-04T08:38:30;4.70;;;2.13;;
71236;SDS011;58984;51.960;5.582;2023-06-04T08:40:56;3.63;;;2.03;;
71236;SDS011;58984;51.960;5.582;2023-06-04T08:43:27;3.80;;;2.00;;
71236;SDS011;58984;51.960;5.582;2023-06-04T08:45:58;3.00;;;1.90;;
71236;SDS011;58984;51.960;5.582;2023-06-04T08:48:26;2.77;;;1.60;;
71236;SDS011;58984;51.960;5.582;2023-06-04T08:50:54;6.68;;;2.20;;
71236;SDS011;58984;51.960;5.582;2023-06-04T08:53:24;4.25;;;2.05;;
71236;SDS011;58984;51.960;5.582;2023-06-04T08:55:50;3.53;;;1.75;;
71236;SDS011;58984;51.960;5.582;2023-06-04T08:58:18;2.80;;;1.75;;
71236;SDS011;58984;51.960;5.582;2023-06-04T09:00:45;4.22;;;2.22;;
71236;SDS011;58984;51.960;5.582;2023-06-04T09:03:10;3.75;;;1.92;;
71236;SDS011;58984;51.960;5.582;2023-06-04T09:05:37;4.07;;;2.10;;
71236;SDS011;58984;51.960;5.582;2023-06-04T09:08:05;2.10;;;1.48;;
71236;SDS011;58984;51.960;5.582;2023-06-04T09:10:36;3.03;;;1.70;;
71236;SDS011;58984;51.960;5.582;2023-06-04T09:13:03;2.90;;;1.80;;
71236;SDS011;58984;51.960;5.582;2023-06-04T09:15:31;3.50;;;1.70;;
71236;SDS011;58984;51.960;5.582;2023-06-04T09:17:56;3.10;;;1.80;;
71236;SDS011;58984;51.960;5.582;2023-06-04T09:20:22;4.00;;;1.73;;
71236;SDS011;58984;51.960;5.582;2023-06-04T09:22:48;1.67;;;1.50;;
71236;SDS011;58984;51.960;5.582;2023-06-04T09:25:27;2.25;;;1.65;;
71236;SDS011;58984;51.960;5.582;2023-06-04T09:27:56;2.55;;;1.67;;
71236;SDS011;58984;51.960;5.582;2023-06-04T09:30:30;2.50;;;1.70;;
71236;SDS011;58984;51.960;5.582;2023-06-04T09:33:05;2.70;;;1.73;;
71236;SDS011;58984;51.960;5.582;2023-06-04T09:35:34;1.95;;;1.50;;
71236;SDS011;58984;51.960;5.582;2023-06-04T09:38:00;2.35;;;1.73;;
71236;SDS011;58984;51.960;5.582;2023-06-04T09:40:34;3.03;;;1.83;;
71236;SDS011;58984;51.960;5.582;2023-06-04T09:43:02;3.47;;;2.40;;
71236;SDS011;58984;51.960;5.582;2023-06-04T09:47:54;3.05;;;1.80;;
71236;SDS011;58984;51.960;5.582;2023-06-04T09:50:24;3.47;;;1.85;;
71236;SDS011;58984;51.960;5.582;2023-06-04T09:52:51;2.17;;;1.97;;
71236;SDS011;58984;51.960;5.582;2023-06-04T09:55:17;3.63;;;1.83;;
71236;SDS011;58984;51.960;5.582;2023-06-04T09:57:48;3.90;;;1.75;;
71236;SDS011;58984;51.960;5.582;2023-06-04T10:00:22;2.63;;;1.85;;
71236;SDS011;58984;51.960;5.582;2023-06-04T10:02:49;4.25;;;1.80;;
71236;SDS011;58984;51.960;5.582;2023-06-04T10:05:19;3.08;;;1.40;;
71236;SDS011;58984;51.960;5.582;2023-06-04T10:07:46;5.03;;;1.70;;
71236;SDS011;58984;51.960;5.582;2023-06-04T10:10:20;2.47;;;1.60;;
71236;SDS011;58984;51.960;5.582;2023-06-04T10:12:50;1.60;;;1.48;;
71236;SDS011;58984;51.960;5.582;2023-06-04T10:15:21;5.28;;;1.60;;
71236;SDS011;58984;51.960;5.582;2023-06-04T10:17:48;2.13;;;1.45;;
71236;SDS011;58984;51.960;5.582;2023-06-04T10:20:14;1.60;;;1.17;;
71236;SDS011;58984;51.960;5.582;2023-06-04T10:22:40;2.50;;;1.55;;
71236;SDS011;58984;51.960;5.582;2023-06-04T10:25:07;1.80;;;1.40;;
71236;SDS011;58984;51.960;5.582;2023-06-04T10:27:35;1.67;;;1.23;;
71236;SDS011;58984;51.960;5.582;2023-06-04T10:30:02;2.17;;;1.40;;
71236;SDS011;58984;51.960;5.582;2023-06-04T10:32:29;1.83;;;1.45;;
71236;SDS011;58984;51.960;5.582;2023-06-04T10:34:55;1.92;;;1.35;;
71236;SDS011;58984;51.960;5.582;2023-06-04T10:37:25;5.20;;;1.40;;
71236;SDS011;58984;51.960;5.582;2023-06-04T10:39:52;1.40;;;1.20;;
71236;SDS011;58984;51.960;5.582;2023-06-04T10:42:20;1.80;;;1.20;;
71236;SDS011;58984;51.960;5.582;2023-06-04T10:44:47;2.80;;;1.60;;
71236;SDS011;58984;51.960;5.582;2023-06-04T10:47:26;1.58;;;1.30;;
71236;SDS011;58984;51.960;5.582;2023-06-04T10:50:06;2.22;;;1.40;;
71236;SDS011;58984;51.960;5.582;2023-06-04T10:52:34;2.78;;;1.30;;
71236;SDS011;58984;51.960;5.582;2023-06-04T10:55:03;1.90;;;1.33;;
71236;SDS011;58984;51.960;5.582;2023-06-04T10:57:30;1.77;;;1.25;;
71236;SDS011;58984;51.960;5.582;2023-06-04T10:59:56;3.60;;;1.45;;
71236;SDS011;58984;51.960;5.582;2023-06-04T11:02:24;6.63;;;2.03;;
71236;SDS011;58984;51.960;5.582;2023-06-04T11:05:05;3.63;;;1.58;;
71236;SDS011;58984;51.960;5.582;2023-06-04T11:07:40;4.53;;;2.05;;
71236;SDS011;58984;51.960;5.582;2023-06-04T11:10:10;3.60;;;1.70;;
71236;SDS011;58984;51.960;5.582;2023-06-04T11:15:09;2.22;;;1.60;;
71236;SDS011;58984;51.960;5.582;2023-06-04T11:17:35;4.00;;;1.67;;
71236;SDS011;58984;51.960;5.582;2023-06-04T11:20:01;3.28;;;2.10;;
71236;SDS011;58984;51.960;5.582;2023-06-04T11:22:31;3.15;;;1.65;;
71236;SDS011;58984;51.960;5.582;2023-06-04T11:24:58;2.78;;;1.70;;
71236;SDS011;58984;51.960;5.582;2023-06-04T11:27:24;2.63;;;1.45;;
71236;SDS011;58984;51.960;5.582;2023-06-04T11:29:51;2.17;;;1.70;;
71236;SDS011;58984;51.960;5.582;2023-06-04T11:32:23;1.88;;;1.50;;
71236;SDS011;58984;51.960;5.582;2023-06-04T11:34:49;1.80;;;1.52;;
71236;SDS011;58984;51.960;5.582;2023-06-04T11:37:15;3.33;;;1.50;;
71236;SDS011;58984;51.960;5.582;2023-06-04T11:39:41;1.52;;;1.25;;
71236;SDS011;58984;51.960;5.582;2023-06-04T11:42:09;1.85;;;1.45;;
71236;SDS011;58984;51.960;5.582;2023-06-04T11:44:35;1.30;;;1.20;;
71236;SDS011;58984;51.960;5.582;2023-06-04T11:47:04;2.55;;;1.50;;
71236;SDS011;58984;51.960;5.582;2023-06-04T11:49:33;2.63;;;1.50;;
71236;SDS011;58984;51.960;5.582;2023-06-04T11:52:00;2.33;;;1.35;;
71236;SDS011;58984;51.960;5.582;2023-06-04T11:54:27;5.13;;;1.50;;
71236;SDS011;58984;51.960;5.582;2023-06-04T11:56:53;4.90;;;1.75;;
71236;SDS011;58984;51.960;5.582;2023-06-04T11:59:18;2.53;;;1.25;;
71236;SDS011;58984;51.960;5.582;2023-06-04T12:01:46;2.83;;;1.38;;
71236;SDS011;58984;51.960;5.582;2023-06-04T12:06:49;3.15;;;1.55;;
71236;SDS011;58984;51.960;5.582;2023-06-04T12:09:19;2.63;;;1.42;;
71236;SDS011;58984;51.960;5.582;2023-06-04T12:11:46;2.05;;;1.60;;
71236;SDS011;58984;51.960;5.582;2023-06-04T12:14:15;1.70;;;1.25;;
71236;SDS011;58984;51.960;5.582;2023-06-04T12:16:54;3.75;;;1.40;;
71236;SDS011;58984;51.960;5.582;2023-06-04T12:19:21;2.17;;;1.48;;
71236;SDS011;58984;51.960;5.582;2023-06-04T12:21:58;2.58;;;1.60;;
71236;SDS011;58984;51.960;5.582;2023-06-04T12:24:28;2.92;;;1.55;;
71236;SDS011;58984;51.960;5.582;2023-06-04T12:27:04;1.85;;;1.58;;
71236;SDS011;58984;51.960;5.582;2023-06-04T12:29:31;2.28;;;1.40;;
71236;SDS011;58984;51.960;5.582;2023-06-04T12:32:07;2.10;;;1.40;;
71236;SDS011;58984;51.960;5.582;2023-06-04T12:34:35;2.85;;;1.40;;
71236;SDS011;58984;51.960;5.582;2023-06-04T12:37:01;1.77;;;1.45;;
71236;SDS011;58984;51.960;5.582;2023-06-04T12:39:31;2.85;;;1.42;;
71236;SDS011;58984;51.960;5.582;2023-06-04T12:41:57;2.60;;;1.60;;
71236;SDS011;58984;51.960;5.582;2023-06-04T12:44:23;2.85;;;1.33;;
71236;SDS011;58984;51.960;5.582;2023-06-04T12:46:49;2.13;;;1.50;;
71236;SDS011;58984;51.960;5.582;2023-06-04T12:49:15;1.45;;;1.35;;
71236;SDS011;58984;51.960;5.582;2023-06-04T12:51:40;2.70;;;1.70;;
71236;SDS011;58984;51.960;5.582;2023-06-04T12:54:06;2.67;;;1.50;;
71236;SDS011;58984;51.960;5.582;2023-06-04T12:56:31;1.65;;;1.50;;
71236;SDS011;58984;51.960;5.582;2023-06-04T12:58:57;2.40;;;1.45;;
71236;SDS011;58984;51.960;5.582;2023-06-04T13:01:23;1.83;;;1.63;;
71236;SDS011;58984;51.960;5.582;2023-06-04T13:03:49;2.78;;;1.58;;
71236;SDS011;58984;51.960;5.582;2023-06-04T13:06:15;2.05;;;1.60;;
71236;SDS011;58984;51.960;5.582;2023-06-04T13:08:40;2.53;;;1.27;;
71236;SDS011;58984;51.960;5.582;2023-06-04T13:11:06;1.77;;;1.60;;
71236;SDS011;58984;51.960;5.582;2023-06-04T13:13:33;2.15;;;1.40;;
71236;SDS011;58984;51.960;5.582;2023-06-04T13:15:58;3.10;;;1.77;;
71236;SDS011;58984;51.960;5.582;2023-06-04T13:18:24;2.03;;;1.83;;
71236;SDS011;58984;51.960;5.582;2023-06-04T13:20:49;3.78;;;1.83;;
71236;SDS011;58984;51.960;5.582;2023-06-04T13:23:15;9.60;;;3.08;;
71236;SDS011;58984;51.960;5.582;2023-06-04T13:25:41;5.70;;;3.10;;
71236;SDS011;58984;51.960;5.582;2023-06-04T13:28:07;2.92;;;2.22;;
71236;SDS011;58984;51.960;5.582;2023-06-04T13:30:34;3.90;;;2.13;;
71236;SDS011;58984;51.960;5.582;2023-06-04T13:33:01;4.85;;;2.22;;
71236;SDS011;58984;51.960;5.582;2023-06-04T13:35:27;2.80;;;2.13;;
71236;SDS011;58984;51.960;5.582;2023-06-04T13:37:53;5.93;;;2.53;;
71236;SDS011;58984;51.960;5.582;2023-06-04T13:40:19;2.80;;;1.70;;
71236;SDS011;58984;51.960;5.582;2023-06-04T13:42:45;2.88;;;1.77;;
71236;SDS011;58984;51.960;5.582;2023-06-04T13:45:11;2.83;;;2.00;;
71236;SDS011;58984;51.960;5.582;2023-06-04T13:47:36;2.17;;;1.70;;
71236;SDS011;58984;51.960;5.582;2023-06-04T13:50:02;3.80;;;2.08;;
71236;SDS011;58984;51.960;5.582;2023-06-04T13:52:28;2.65;;;2.00;;
71236;SDS011;58984;51.960;5.582;2023-06-04T13:54:54;2.33;;;1.50;;
71236;SDS011;58984;51.960;5.582;2023-06-04T13:57:20;3.47;;;1.77;;
71236;SDS011;58984;51.960;5.582;2023-06-04T13:59:46;2.58;;;1.70;;
71236;SDS011;58984;51.960;5.582;2023-06-04T14:02:12;2.83;;;1.85;;
71236;SDS011;58984;51.960;5.582;2023-06-04T14:04:37;2.92;;;1.70;;
71236;SDS011;58984;51.960;5.582;2023-06-04T14:07:03;2.35;;;1.83;;
71236;SDS011;58984;51.960;5.582;2023-06-04T14:09:30;2.88;;;1.80;;
71236;SDS011;58984;51.960;5.582;2023-06-04T14:11:56;3.03;;;2.08;;
71236;SDS011;58984;51.960;5.582;2023-06-04T14:14:21;1.80;;;1.67;;
71236;SDS011;58984;51.960;5.582;2023-06-04T14:16:47;2.38;;;1.80;;
71236;SDS011;58984;51.960;5.582;2023-06-04T14:19:13;3.00;;;1.48;;
71236;SDS011;58984;51.960;5.582;2023-06-04T14:21:40;1.77;;;1.52;;
71236;SDS011;58984;51.960;5.582;2023-06-04T14:24:06;2.15;;;1.60;;
71236;SDS011;58984;51.960;5.582;2023-06-04T14:26:32;2.28;;;1.70;;
71236;SDS011;58984;51.960;5.582;2023-06-04T14:28:58;2.47;;;1.55;;
71236;SDS011;58984;51.960;5.582;2023-06-04T14:31:24;2.70;;;1.80;;
71236;SDS011;58984;51.960;5.582;2023-06-04T14:33:50;2.50;;;1.45;;
71236;SDS011;58984;51.960;5.582;2023-06-04T14:36:15;2.58;;;1.70;;
71236;SDS011;58984;51.960;5.582;2023-06-04T14:38:41;3.70;;;1.83;;
71236;SDS011;58984;51.960;5.582;2023-06-04T14:41:07;3.28;;;1.80;;
71236;SDS011;58984;51.960;5.582;2023-06-04T14:43:32;2.15;;;1.90;;
71236;SDS011;58984;51.960;5.582;2023-06-04T14:45:58;2.00;;;1.55;;
71236;SDS011;58984;51.960;5.582;2023-06-04T14:48:23;3.58;;;1.70;;
71236;SDS011;58984;51.960;5.582;2023-06-04T14:50:49;3.28;;;1.90;;
71236;SDS011;58984;51.960;5.582;2023-06-04T14:53:18;1.83;;;1.35;;
71236;SDS011;58984;51.960;5.582;2023-06-04T14:55:44;2.35;;;1.75;;
71236;SDS011;58984;51.960;5.582;2023-06-04T14:58:11;4.05;;;1.73;;